DLH772 EDDM-VTBS
Flight info
| Callsign | DLH772 |
|---|---|
| Flight time | N/A |
| Altitude | 23000 |
| Route | KIRDI4N KIRDI DCT BUWOQ DCT OBFEZ/N0476F350 DCT STEIN DCT TEGRI DCT DINRO N743 UDROS DCT BAMUP DCT ROLIN/N0486F370 DCT TAGAR DCT BT DCT BARAD M747 SUBUT T923 ERLEV M11 RODAR A909 TUNEK B143 KRS A240 INRAK B449 RANAH L750 BIROS/N0481F390 L750 MERUN G452 LKN R460 CEA L507 IGONI WILLA1C |
| Aircraft | A346/H-SDE2E3FGHIJ3J4J5M1RWXY/LB1D1 |
Departure
| Time | 2026-05-04 21:40 |
|---|---|
| Airport | Munich Airport (EDDM) |
Arrival
| Time | N/A |
|---|---|
| Airport | Suvarnabhumi Airport (VTBS) |
| Time | Latitude | Longitude | Altitude | Speed | Heading |
|---|---|---|---|---|---|
| 2026-05-04 21:02 | 48.35469 | 11.79733 | 1466 ft | 0 kts | 83° |
| 2026-05-04 21:24 | 48.35467 | 11.79714 | 1477 ft | 4 kts | 83° |
| 2026-05-04 21:25 | 48.35464 | 11.79674 | 1482 ft | 4 kts | 83° |
| 2026-05-04 21:25 | 48.35461 | 11.79634 | 1477 ft | 4 kts | 83° |
| 2026-05-04 21:25 | 48.35458 | 11.79594 | 1477 ft | 3 kts | 83° |
| 2026-05-04 21:25 | 48.35457 | 11.79563 | 1477 ft | 4 kts | 97° |
| 2026-05-04 21:26 | 48.35463 | 11.79534 | 1477 ft | 4 kts | 129° |
| 2026-05-04 21:26 | 48.35477 | 11.79518 | 1477 ft | 4 kts | 168° |
| 2026-05-04 21:26 | 48.35501 | 11.79514 | 1477 ft | 4 kts | 173° |
| 2026-05-04 21:26 | 48.35521 | 11.79510 | 1477 ft | 0 kts | 173° |
| 2026-05-04 21:32 | 48.35501 | 11.79514 | 1477 ft | 5 kts | 173° |
| 2026-05-04 21:32 | 48.35457 | 11.79522 | 1477 ft | 7 kts | 173° |
| 2026-05-04 21:32 | 48.35400 | 11.79531 | 1482 ft | 9 kts | 173° |
| 2026-05-04 21:33 | 48.35332 | 11.79543 | 1482 ft | 10 kts | 173° |
| 2026-05-04 21:33 | 48.35254 | 11.79557 | 1486 ft | 12 kts | 173° |
| 2026-05-04 21:33 | 48.35165 | 11.79572 | 1489 ft | 13 kts | 173° |
| 2026-05-04 21:33 | 48.35076 | 11.79587 | 1486 ft | 8 kts | 173° |
| 2026-05-04 21:34 | 48.35027 | 11.79601 | 1483 ft | 8 kts | 158° |
| 2026-05-04 21:34 | 48.34978 | 11.79654 | 1488 ft | 9 kts | 143° |
| 2026-05-04 21:34 | 48.34912 | 11.79684 | 1483 ft | 10 kts | 172° |
| 2026-05-04 21:34 | 48.34849 | 11.79695 | 1490 ft | 9 kts | 171° |
| 2026-05-04 21:35 | 48.34809 | 11.79762 | 1479 ft | 10 kts | 94° |
| 2026-05-04 21:35 | 48.34816 | 11.79880 | 1494 ft | 12 kts | 83° |
| 2026-05-04 21:35 | 48.34826 | 11.80014 | 1480 ft | 13 kts | 83° |
| 2026-05-04 21:35 | 48.34838 | 11.80159 | 1482 ft | 14 kts | 83° |
| 2026-05-04 21:36 | 48.34829 | 11.80311 | 1486 ft | 15 kts | 117° |
| 2026-05-04 21:36 | 48.34764 | 11.80388 | 1480 ft | 12 kts | 163° |
| 2026-05-04 21:36 | 48.34685 | 11.80407 | 1482 ft | 11 kts | 173° |
| 2026-05-04 21:36 | 48.34610 | 11.80417 | 1491 ft | 11 kts | 181° |
| 2026-05-04 21:37 | 48.34530 | 11.80392 | 1484 ft | 12 kts | 204° |
| 2026-05-04 21:37 | 48.34480 | 11.80319 | 1480 ft | 8 kts | 242° |
| 2026-05-04 21:37 | 48.34465 | 11.80250 | 1487 ft | 4 kts | 260° |
| 2026-05-04 21:37 | 48.34464 | 11.80239 | 1479 ft | 0 kts | 262° |
| 2026-05-04 21:38 | 48.34464 | 11.80238 | 1479 ft | 0 kts | 262° |
| 2026-05-04 21:38 | 48.34452 | 11.80093 | 1494 ft | 40 kts | 263° |
| 2026-05-04 21:39 | 48.34398 | 11.79384 | 1487 ft | 95 kts | 263° |
| 2026-05-04 21:39 | 48.34302 | 11.78140 | 1491 ft | 143 kts | 264° |
| 2026-05-04 21:39 | 48.34168 | 11.76423 | 1519 ft | 181 kts | 263° |
| 2026-05-04 21:39 | 48.34005 | 11.74520 | 1950 ft | 187 kts | 263° |
| 2026-05-04 21:40 | 48.33845 | 11.72532 | 2473 ft | 195 kts | 263° |
| 2026-05-04 21:40 | 48.33351 | 11.70625 | 2886 ft | 203 kts | 224° |
| 2026-05-04 21:40 | 48.32065 | 11.69726 | 3150 ft | 214 kts | 180° |
| 2026-05-04 21:40 | 48.30584 | 11.69992 | 3516 ft | 222 kts | 169° |
| 2026-05-04 21:41 | 48.29064 | 11.70449 | 4072 ft | 223 kts | 162° |
| 2026-05-04 21:41 | 48.27678 | 11.71501 | 4612 ft | 228 kts | 146° |
| 2026-05-04 21:41 | 48.26350 | 11.72965 | 4894 ft | 245 kts | 144° |
| 2026-05-04 21:41 | 48.24930 | 11.74540 | 5215 ft | 262 kts | 145° |
| 2026-05-04 21:42 | 48.23407 | 11.76164 | 5710 ft | 272 kts | 146° |
| 2026-05-04 21:42 | 48.21836 | 11.77791 | 6413 ft | 275 kts | 147° |
| 2026-05-04 21:42 | 48.20244 | 11.79417 | 7135 ft | 277 kts | 146° |
| 2026-05-04 21:42 | 48.18862 | 11.81400 | 7800 ft | 284 kts | 122° |
| 2026-05-04 21:43 | 48.18231 | 11.84205 | 8515 ft | 289 kts | 94° |
| 2026-05-04 21:43 | 48.18363 | 11.87220 | 9285 ft | 291 kts | 84° |
| 2026-05-04 21:43 | 48.18609 | 11.90266 | 9923 ft | 299 kts | 84° |
| 2026-05-04 21:43 | 48.18861 | 11.93447 | 10263 ft | 315 kts | 84° |
| 2026-05-04 21:44 | 48.19113 | 11.96770 | 10775 ft | 324 kts | 85° |
| 2026-05-04 21:44 | 48.19361 | 12.00137 | 11454 ft | 326 kts | 85° |
| 2026-05-04 21:44 | 48.19606 | 12.03543 | 12142 ft | 329 kts | 85° |
| 2026-05-04 21:44 | 48.19852 | 12.06982 | 12760 ft | 334 kts | 86° |
| 2026-05-04 21:45 | 48.20100 | 12.10486 | 13346 ft | 340 kts | 86° |
| 2026-05-04 21:45 | 48.20342 | 12.13988 | 13971 ft | 344 kts | 87° |
| 2026-05-04 21:45 | 48.20590 | 12.17619 | 14585 ft | 347 kts | 87° |
| 2026-05-04 21:45 | 48.20834 | 12.21213 | 15172 ft | 350 kts | 86° |
| 2026-05-04 21:46 | 48.21082 | 12.24866 | 15777 ft | 353 kts | 86° |
| 2026-05-04 21:46 | 48.21332 | 12.28561 | 16391 ft | 356 kts | 86° |
| 2026-05-04 21:46 | 48.21583 | 12.32278 | 17000 ft | 359 kts | 86° |
| 2026-05-04 21:46 | 48.21833 | 12.35985 | 17594 ft | 363 kts | 86° |
| 2026-05-04 21:47 | 48.22087 | 12.39776 | 18201 ft | 366 kts | 86° |
| 2026-05-04 21:47 | 48.22343 | 12.43609 | 18720 ft | 369 kts | 86° |
| 2026-05-04 21:47 | 48.22600 | 12.47467 | 19250 ft | 372 kts | 86° |
| 2026-05-04 21:47 | 48.22854 | 12.51300 | 19771 ft | 374 kts | 86° |
| 2026-05-04 21:48 | 48.23015 | 12.55223 | 20301 ft | 376 kts | 91° |
| 2026-05-04 21:48 | 48.22928 | 12.59179 | 20813 ft | 379 kts | 97° |
| 2026-05-04 21:48 | 48.22613 | 12.63159 | 21058 ft | 390 kts | 100° |
| 2026-05-04 21:48 | 48.22216 | 12.67255 | 21279 ft | 401 kts | 100° |
| 2026-05-04 21:49 | 48.21799 | 12.71475 | 21505 ft | 413 kts | 100° |
| 2026-05-04 21:49 | 48.21380 | 12.75794 | 21707 ft | 424 kts | 100° |
| 2026-05-04 21:49 | 48.21035 | 12.80259 | 21914 ft | 436 kts | 96° |
| 2026-05-04 21:49 | 48.20862 | 12.84800 | 22104 ft | 447 kts | 93° |
| 2026-05-04 21:50 | 48.20647 | 12.89487 | 22400 ft | 452 kts | 102° |
| 2026-05-04 21:50 | 48.19878 | 12.94069 | 22900 ft | 453 kts | 108° |
| 2026-05-04 21:50 | 48.19235 | 12.98712 | 23405 ft | 458 kts | 97° |
| 2026-05-04 21:50 | 48.19132 | 13.03499 | 23844 ft | 461 kts | 91° |
| 2026-05-04 21:51 | 48.19138 | 13.08324 | 24263 ft | 464 kts | 92° |
| 2026-05-04 21:51 | 48.18958 | 13.13170 | 24643 ft | 466 kts | 100° |
| 2026-05-04 21:51 | 48.18276 | 13.17933 | 25054 ft | 466 kts | 106° |
| 2026-05-04 21:51 | 48.17423 | 13.22638 | 25482 ft | 468 kts | 107° |
| 2026-05-04 21:52 | 48.16536 | 13.27344 | 25877 ft | 471 kts | 107° |
| 2026-05-04 21:52 | 48.15636 | 13.32100 | 26269 ft | 473 kts | 107° |
| 2026-05-04 21:52 | 48.14746 | 13.36807 | 26654 ft | 476 kts | 107° |
| 2026-05-04 21:52 | 48.13841 | 13.41610 | 27054 ft | 478 kts | 107° |
| 2026-05-04 21:53 | 48.12935 | 13.46439 | 27444 ft | 481 kts | 107° |
| 2026-05-04 21:53 | 48.12034 | 13.51240 | 27827 ft | 483 kts | 107° |
| 2026-05-04 21:53 | 48.11120 | 13.56102 | 28186 ft | 486 kts | 107° |
| 2026-05-04 21:53 | 48.10200 | 13.60982 | 28609 ft | 487 kts | 107° |
| 2026-05-04 21:54 | 48.09589 | 13.64218 | 28981 ft | 486 kts | 107° |
| 2026-05-04 21:54 | 48.08667 | 13.69081 | 29564 ft | 484 kts | 107° |
| 2026-05-04 21:54 | 48.07742 | 13.73946 | 30113 ft | 482 kts | 108° |
| 2026-05-04 21:54 | 48.06823 | 13.78764 | 30533 ft | 481 kts | 108° |
| 2026-05-04 21:55 | 48.05898 | 13.83598 | 30914 ft | 482 kts | 108° |
| 2026-05-04 21:55 | 48.04983 | 13.88379 | 31298 ft | 482 kts | 108° |
| 2026-05-04 21:55 | 48.04076 | 13.93201 | 31728 ft | 481 kts | 108° |
| 2026-05-04 21:55 | 48.03096 | 13.97985 | 32156 ft | 480 kts | 109° |
| 2026-05-04 21:56 | 48.02098 | 14.02732 | 32575 ft | 479 kts | 109° |
| 2026-05-04 21:56 | 48.01067 | 14.07490 | 32977 ft | 477 kts | 112° |
| 2026-05-04 21:56 | 47.99855 | 14.12102 | 33377 ft | 476 kts | 115° |
| 2026-05-04 21:56 | 47.98567 | 14.16675 | 33677 ft | 477 kts | 115° |
| 2026-05-04 21:57 | 47.97288 | 14.21248 | 33967 ft | 479 kts | 115° |
| 2026-05-04 21:57 | 47.96063 | 14.25887 | 34220 ft | 481 kts | 112° |
| 2026-05-04 21:57 | 47.94964 | 14.30625 | 34469 ft | 483 kts | 109° |
| 2026-05-04 21:57 | 47.94021 | 14.35399 | 34709 ft | 485 kts | 107° |
| 2026-05-04 21:58 | 47.93211 | 14.40316 | 34921 ft | 487 kts | 105° |
| 2026-05-04 21:58 | 47.91679 | 14.50148 | 34957 ft | 488 kts | 105° |
| 2026-05-04 21:59 | 47.90136 | 14.60003 | 34960 ft | 487 kts | 105° |
| 2026-05-04 21:59 | 47.88583 | 14.69858 | 34965 ft | 486 kts | 105° |
| 2026-05-04 22:00 | 47.87021 | 14.79691 | 34962 ft | 486 kts | 105° |
| 2026-05-04 22:00 | 47.85446 | 14.89544 | 34969 ft | 487 kts | 105° |
| 2026-05-04 22:01 | 47.83870 | 14.99327 | 34980 ft | 487 kts | 105° |
| 2026-05-04 22:01 | 47.82287 | 15.09098 | 34983 ft | 487 kts | 105° |
| 2026-05-04 22:02 | 47.80686 | 15.18921 | 34984 ft | 487 kts | 105° |
| 2026-05-04 22:02 | 47.79018 | 15.28660 | 34987 ft | 487 kts | 108° |
| 2026-05-04 22:03 | 47.76750 | 15.38206 | 34980 ft | 486 kts | 115° |
| 2026-05-04 22:03 | 47.74000 | 15.47371 | 34987 ft | 486 kts | 116° |
| 2026-05-04 22:04 | 47.71225 | 15.56487 | 34989 ft | 487 kts | 116° |
| 2026-05-04 22:04 | 47.68420 | 15.65671 | 34985 ft | 486 kts | 116° |
| 2026-05-04 22:05 | 47.65631 | 15.74788 | 34984 ft | 485 kts | 116° |
| 2026-05-04 22:05 | 47.62835 | 15.83903 | 34984 ft | 484 kts | 115° |
| 2026-05-04 22:06 | 47.60044 | 15.92984 | 34979 ft | 483 kts | 116° |
| 2026-05-04 22:06 | 47.57255 | 16.02014 | 34978 ft | 483 kts | 116° |
| 2026-05-04 22:07 | 47.54432 | 16.11107 | 34975 ft | 484 kts | 115° |
| 2026-05-04 22:07 | 47.51604 | 16.20190 | 34975 ft | 487 kts | 116° |
| 2026-05-04 22:08 | 47.48773 | 16.29251 | 34969 ft | 486 kts | 116° |
| 2026-05-04 22:08 | 47.45926 | 16.38324 | 34971 ft | 485 kts | 116° |
| 2026-05-04 22:09 | 47.43078 | 16.47365 | 34975 ft | 484 kts | 116° |
| 2026-05-04 22:09 | 47.40260 | 16.56421 | 34977 ft | 485 kts | 114° |
| 2026-05-04 22:10 | 47.37881 | 16.65763 | 34978 ft | 485 kts | 110° |
| 2026-05-04 22:10 | 47.35998 | 16.75281 | 34974 ft | 486 kts | 100° |
| 2026-05-04 22:11 | 47.34953 | 16.85144 | 34979 ft | 486 kts | 98° |
| 2026-05-04 22:11 | 47.33903 | 16.95016 | 34979 ft | 487 kts | 99° |
| 2026-05-04 22:12 | 47.32228 | 17.04683 | 34987 ft | 486 kts | 109° |
| 2026-05-04 22:12 | 47.29997 | 17.14100 | 34990 ft | 486 kts | 110° |
| 2026-05-04 22:13 | 47.27725 | 17.23512 | 34995 ft | 486 kts | 109° |
| 2026-05-04 22:13 | 47.25462 | 17.32864 | 35001 ft | 488 kts | 109° |
| 2026-05-04 22:14 | 47.23178 | 17.42297 | 35001 ft | 488 kts | 109° |
| 2026-05-04 22:14 | 47.20889 | 17.51717 | 35003 ft | 488 kts | 110° |
| 2026-05-04 22:15 | 47.18591 | 17.61126 | 35006 ft | 488 kts | 109° |
| 2026-05-04 22:15 | 47.16280 | 17.70533 | 35009 ft | 489 kts | 109° |
| 2026-05-04 22:16 | 47.13956 | 17.79983 | 35019 ft | 489 kts | 109° |
| 2026-05-04 22:16 | 47.11638 | 17.89370 | 35033 ft | 489 kts | 109° |
| 2026-05-04 22:17 | 47.09299 | 17.98786 | 35035 ft | 489 kts | 109° |
| 2026-05-04 22:17 | 47.06957 | 18.08174 | 35038 ft | 489 kts | 109° |
| 2026-05-04 22:18 | 47.04617 | 18.17526 | 35038 ft | 489 kts | 109° |
| 2026-05-04 22:18 | 47.02263 | 18.26896 | 35043 ft | 489 kts | 109° |
| 2026-05-04 22:19 | 46.99897 | 18.36262 | 35051 ft | 489 kts | 109° |
| 2026-05-04 22:19 | 46.97527 | 18.45604 | 35047 ft | 488 kts | 109° |
| 2026-05-04 22:20 | 46.95154 | 18.54937 | 35049 ft | 488 kts | 109° |
| 2026-05-04 22:20 | 46.92773 | 18.64260 | 35054 ft | 488 kts | 109° |
| 2026-05-04 22:21 | 46.90383 | 18.73577 | 35059 ft | 489 kts | 109° |
| 2026-05-04 22:21 | 46.87983 | 18.82891 | 35061 ft | 489 kts | 109° |
| 2026-05-04 22:22 | 46.85587 | 18.92154 | 35060 ft | 489 kts | 109° |
| 2026-05-04 22:22 | 46.83172 | 19.01454 | 35063 ft | 489 kts | 109° |
| 2026-05-04 22:23 | 46.80751 | 19.10742 | 35076 ft | 489 kts | 109° |
| 2026-05-04 22:23 | 46.78315 | 19.20049 | 35071 ft | 489 kts | 110° |
| 2026-05-04 22:24 | 46.75891 | 19.29268 | 35073 ft | 489 kts | 110° |
| 2026-05-04 22:24 | 46.73444 | 19.38540 | 35076 ft | 489 kts | 110° |
| 2026-05-04 22:25 | 46.70985 | 19.47820 | 35078 ft | 489 kts | 110° |
| 2026-05-04 22:25 | 46.68537 | 19.57025 | 35078 ft | 489 kts | 110° |
| 2026-05-04 22:26 | 46.66066 | 19.66279 | 35077 ft | 489 kts | 110° |
| 2026-05-04 22:26 | 46.63586 | 19.75530 | 35081 ft | 489 kts | 110° |
| 2026-05-04 22:27 | 46.61098 | 19.84771 | 35082 ft | 489 kts | 110° |
| 2026-05-04 22:27 | 46.58609 | 19.93984 | 35078 ft | 489 kts | 110° |
| 2026-05-04 22:28 | 46.56116 | 20.03176 | 35071 ft | 489 kts | 110° |
| 2026-05-04 22:28 | 46.53608 | 20.12387 | 35067 ft | 490 kts | 110° |
| 2026-05-04 22:29 | 46.51089 | 20.21605 | 35067 ft | 490 kts | 110° |
| 2026-05-04 22:29 | 46.48563 | 20.30810 | 35067 ft | 490 kts | 110° |
| 2026-05-04 22:30 | 46.46030 | 20.40006 | 35068 ft | 490 kts | 110° |
| 2026-05-04 22:30 | 46.43489 | 20.49193 | 35071 ft | 490 kts | 110° |
| 2026-05-04 22:31 | 46.40961 | 20.58290 | 35079 ft | 488 kts | 110° |
| 2026-05-04 22:31 | 46.38417 | 20.67423 | 35080 ft | 488 kts | 110° |
| 2026-05-04 22:32 | 46.35855 | 20.76583 | 35069 ft | 488 kts | 110° |
| 2026-05-04 22:32 | 46.33308 | 20.85650 | 35070 ft | 488 kts | 110° |
| 2026-05-04 22:33 | 46.30739 | 20.94743 | 35082 ft | 486 kts | 110° |
| 2026-05-04 22:33 | 46.28173 | 21.03811 | 35081 ft | 486 kts | 110° |
| 2026-05-04 22:34 | 46.25601 | 21.12869 | 35085 ft | 486 kts | 110° |
| 2026-05-04 22:34 | 46.23036 | 21.21865 | 35097 ft | 486 kts | 110° |
| 2026-05-04 22:35 | 46.20439 | 21.30903 | 35087 ft | 486 kts | 110° |
| 2026-05-04 22:35 | 46.17835 | 21.39952 | 35081 ft | 487 kts | 110° |
| 2026-05-04 22:36 | 46.15239 | 21.48930 | 35278 ft | 485 kts | 110° |
| 2026-05-04 22:36 | 46.13927 | 21.53456 | 35407 ft | 485 kts | 110° |
| 2026-05-04 22:36 | 46.12618 | 21.57959 | 35553 ft | 485 kts | 110° |
| 2026-05-04 22:36 | 46.11318 | 21.62409 | 35688 ft | 484 kts | 110° |
| 2026-05-04 22:37 | 46.10008 | 21.66899 | 35812 ft | 484 kts | 110° |
| 2026-05-04 22:37 | 46.08700 | 21.71382 | 35939 ft | 484 kts | 110° |
| 2026-05-04 22:37 | 46.07392 | 21.75854 | 36068 ft | 484 kts | 110° |
| 2026-05-04 22:37 | 46.06081 | 21.80326 | 36201 ft | 484 kts | 110° |
| 2026-05-04 22:38 | 46.04765 | 21.84806 | 36326 ft | 484 kts | 110° |
| 2026-05-04 22:38 | 46.03447 | 21.89286 | 36455 ft | 484 kts | 110° |
| 2026-05-04 22:38 | 46.02132 | 21.93742 | 36610 ft | 484 kts | 110° |
| 2026-05-04 22:38 | 46.00810 | 21.98215 | 36739 ft | 484 kts | 110° |
| 2026-05-04 22:39 | 45.99489 | 22.02681 | 36873 ft | 484 kts | 110° |
| 2026-05-04 22:39 | 45.98165 | 22.07148 | 36999 ft | 484 kts | 110° |
| 2026-05-04 22:39 | 45.96838 | 22.11617 | 37113 ft | 485 kts | 110° |
| 2026-05-04 22:40 | 45.94199 | 22.20476 | 37119 ft | 485 kts | 111° |
| 2026-05-04 22:40 | 45.91536 | 22.29390 | 37125 ft | 484 kts | 111° |
| 2026-05-04 22:41 | 45.89319 | 22.36782 | 37125 ft | 484 kts | 111° |
| 2026-05-04 22:41 | 45.86638 | 22.45691 | 37122 ft | 484 kts | 111° |
| 2026-05-04 22:42 | 45.83946 | 22.54608 | 37127 ft | 484 kts | 111° |
| 2026-05-04 22:42 | 45.81272 | 22.63441 | 37144 ft | 484 kts | 111° |
| 2026-05-04 22:43 | 45.78567 | 22.72336 | 37134 ft | 484 kts | 111° |
| 2026-05-04 22:43 | 45.75858 | 22.81216 | 37138 ft | 484 kts | 111° |
| 2026-05-04 22:44 | 45.73165 | 22.90010 | 37140 ft | 484 kts | 111° |
| 2026-05-04 22:44 | 45.70438 | 22.98889 | 37145 ft | 484 kts | 111° |